Terminal Aerodrome Forecast
Issued by NWS

Home | Current Version | Previous Version | Text Only | Print | Product List | Glossary On
Versions: 1 2 3 4 5 6 7 8 9 10 11 12 13 14 15 16 17 18
000
FTUS46 KSEW 200900 AAA
TAFBFI
TAF AMD
KBFI 200941Z 2010/2106 14005KT P6SM SCT025 BKN070
      TEMPO 2010/2012 BKN025 BKN070
     FM201800 16005KT P6SM SCT040 BKN080
     FM202000 18005KT P6SM SCT070 SCT120
     FM210400 VRB03KT P6SM SCT120=

USA.gov is the U.S. government's official web portal to all federal, state and local government web resources and services.